Terminal Aerodrome Forecast
Issued by NWS

Home | Current Version | Previous Version | Graphics & Text | Print | Product List | Glossary On
Versions: 1 2 3 4 5 6 7 8 9 10 11 12 13
000
FTUS43 KICT 201128
TAFHUT
TAF
KHUT 201128Z 2012/2112 19012KT P6SM FEW250
     FM201500 20018G25KT P6SM SKC
     FM202300 19012G18KT P6SM FEW250
     FM210100 19012KT P6SM FEW250=

USA.gov is the U.S. government's official web portal to all federal, state and local government web resources and services.